createdAt,value
2017-10-12T00:00:51.445Z,15.00
2017-10-12T00:03:19.821Z,15.00
2017-10-12T00:05:49.352Z,15.10
2017-10-12T00:08:17.717Z,15.00
2017-10-12T00:10:47.215Z,15.00
2017-10-12T00:13:15.639Z,15.00
2017-10-12T00:15:44.768Z,15.00
2017-10-12T00:18:13.202Z,15.00
2017-10-12T00:20:42.369Z,15.00
2017-10-12T00:23:10.742Z,15.00
2017-10-12T00:25:39.132Z,15.00
2017-10-12T00:28:07.506Z,15.00
2017-10-12T00:30:35.914Z,15.00
2017-10-12T00:33:05.058Z,15.00
2017-10-12T00:35:33.432Z,15.00
2017-10-12T00:38:01.812Z,15.00
2017-10-12T00:40:30.195Z,15.00
2017-10-12T00:42:58.638Z,14.90
2017-10-12T00:48:01.214Z,15.00
2017-10-12T00:50:30.375Z,14.90
2017-10-12T00:52:58.741Z,14.90
2017-10-12T00:55:27.125Z,15.00
2017-10-12T00:57:55.516Z,15.00
2017-10-12T01:00:23.606Z,15.00
2017-10-12T01:02:52.058Z,15.00
2017-10-12T01:05:20.431Z,15.00
2017-10-12T01:07:48.626Z,15.00
2017-10-12T01:10:17.002Z,14.90
2017-10-12T01:12:45.420Z,14.90
2017-10-12T01:15:13.790Z,14.90
2017-10-12T01:17:42.931Z,14.90
2017-10-12T01:20:11.015Z,14.90
2017-10-12T01:22:38.501Z,15.00
2017-10-12T01:25:06.978Z,14.90
2017-10-12T01:27:35.430Z,14.90
2017-10-12T01:30:03.109Z,14.90
2017-10-12T01:32:31.177Z,15.00
2017-10-12T01:34:59.226Z,14.90
2017-10-12T01:37:26.947Z,15.00
2017-10-12T01:39:55.215Z,14.90
2017-10-12T01:42:24.011Z,14.80
2017-10-12T01:44:52.062Z,14.80
2017-10-12T01:47:20.522Z,14.80
2017-10-12T01:49:48.916Z,14.80
2017-10-12T01:52:18.093Z,14.70
2017-10-12T01:54:46.502Z,14.70
2017-10-12T01:57:15.641Z,14.60
2017-10-12T01:59:43.685Z,14.60
2017-10-12T02:02:12.077Z,14.50
2017-10-12T02:04:40.457Z,14.40
2017-10-12T02:07:08.846Z,14.30
2017-10-12T02:09:37.226Z,14.20
2017-10-12T02:12:05.587Z,14.20
2017-10-12T02:14:33.971Z,14.20
2017-10-12T02:17:02.346Z,14.20
2017-10-12T02:19:30.753Z,14.10
2017-10-12T02:21:58.949Z,14.10
2017-10-12T02:24:27.350Z,14.00
2017-10-12T02:26:56.498Z,13.90
2017-10-12T02:29:24.891Z,13.80
2017-10-12T02:31:53.281Z,14.00
2017-10-12T02:34:21.652Z,13.90
2017-10-12T02:36:50.044Z,13.80
2017-10-12T02:39:18.413Z,13.90
2017-10-12T02:41:47.269Z,13.90
2017-10-12T02:44:15.876Z,13.90
2017-10-12T02:46:44.265Z,13.90
2017-10-12T02:49:12.301Z,13.90
2017-10-12T02:51:40.689Z,13.90
2017-10-12T02:54:09.084Z,13.80
2017-10-12T02:56:37.462Z,13.80
2017-10-12T02:59:05.835Z,13.70
2017-10-12T03:01:34.225Z,13.70
2017-10-12T03:04:04.153Z,13.70
2017-10-12T03:06:32.956Z,13.60
2017-10-12T03:09:01.338Z,13.70
2017-10-12T03:11:29.740Z,13.70
2017-10-12T03:13:58.129Z,13.70
2017-10-12T03:16:25.646Z,13.70
2017-10-12T03:18:54.408Z,13.70
2017-10-12T03:21:22.433Z,13.70
2017-10-12T03:23:50.810Z,13.70
2017-10-12T03:26:19.232Z,13.80
2017-10-12T03:28:49.255Z,13.80
2017-10-12T03:31:17.645Z,13.80
2017-10-12T03:33:46.589Z,13.80
2017-10-12T03:36:14.780Z,13.80
2017-10-12T03:38:42.981Z,13.80
2017-10-12T03:41:11.232Z,13.80
2017-10-12T03:43:39.480Z,13.80
2017-10-12T03:46:07.508Z,13.80
2017-10-12T03:48:36.466Z,14.00
2017-10-12T03:51:04.668Z,13.90
2017-10-12T03:53:33.278Z,13.90
2017-10-12T03:56:01.688Z,13.90
2017-10-12T03:58:30.068Z,13.90
2017-10-12T04:00:58.454Z,13.90
2017-10-12T04:03:26.843Z,13.80
2017-10-12T04:05:55.222Z,13.80
2017-10-12T04:08:23.716Z,14.00
2017-10-12T04:10:52.985Z,13.80
2017-10-12T04:13:21.370Z,13.90
2017-10-12T04:15:49.762Z,13.80
2017-10-12T04:18:18.144Z,13.80
2017-10-12T04:20:46.625Z,13.80
2017-10-12T04:23:14.989Z,13.80
2017-10-12T04:25:43.356Z,13.80
2017-10-12T04:28:11.548Z,13.90
2017-10-12T04:30:39.920Z,13.90
2017-10-12T04:33:07.963Z,13.80
2017-10-12T04:35:36.338Z,13.70
2017-10-12T04:38:04.717Z,13.60
2017-10-12T04:40:33.107Z,13.60
2017-10-12T04:43:01.473Z,13.60
2017-10-12T04:45:30.877Z,13.40
2017-10-12T04:47:59.253Z,13.50
2017-10-12T04:50:27.641Z,13.40
2017-10-12T04:52:56.010Z,13.50
2017-10-12T04:55:25.437Z,13.50
2017-10-12T04:57:53.819Z,13.50
2017-10-12T05:00:22.213Z,13.40
2017-10-12T05:02:51.377Z,13.50
2017-10-12T05:05:19.751Z,13.50
2017-10-12T05:07:48.145Z,13.50
2017-10-12T05:10:16.521Z,13.40
2017-10-12T05:12:44.907Z,13.50
2017-10-12T05:15:13.330Z,13.50
2017-10-12T05:17:41.708Z,13.50
2017-10-12T05:20:10.205Z,13.40
2017-10-12T05:22:38.579Z,13.40
2017-10-12T05:25:08.179Z,13.40
2017-10-12T05:27:36.573Z,13.40
2017-10-12T05:30:04.765Z,13.40
2017-10-12T05:32:33.168Z,13.40
2017-10-12T05:35:01.545Z,13.40
2017-10-12T05:37:29.910Z,13.40
2017-10-12T05:39:58.313Z,13.40
2017-10-12T05:42:27.510Z,13.30
2017-10-12T05:44:56.675Z,13.30
2017-10-12T05:47:25.057Z,13.30
2017-10-12T05:49:53.453Z,13.30
2017-10-12T05:52:21.881Z,13.30
2017-10-12T05:54:50.253Z,13.10
2017-10-12T05:57:18.389Z,13.10
2017-10-12T05:59:47.538Z,13.10
2017-10-12T06:02:15.573Z,13.10
2017-10-12T06:04:44.738Z,13.10
2017-10-12T06:07:14.622Z,13.00
2017-10-12T06:09:42.918Z,13.00
2017-10-12T06:12:11.096Z,12.80
2017-10-12T06:14:39.287Z,12.80
2017-10-12T06:17:08.262Z,12.60
2017-10-12T06:19:36.638Z,12.60
2017-10-12T06:22:05.018Z,12.60
2017-10-12T06:24:33.415Z,12.60
2017-10-12T06:27:02.556Z,12.60
2017-10-12T06:29:30.946Z,12.60
2017-10-12T06:31:59.344Z,12.70
2017-10-12T06:34:27.729Z,12.70
2017-10-12T06:36:56.117Z,12.60
2017-10-12T06:39:24.497Z,12.60
2017-10-12T06:41:52.701Z,12.60
2017-10-12T06:44:21.070Z,12.70
2017-10-12T06:46:50.202Z,12.60
2017-10-12T06:49:18.589Z,12.60
2017-10-12T06:51:46.962Z,12.60
2017-10-12T06:54:16.129Z,12.60
2017-10-12T06:56:44.510Z,12.60
2017-10-12T06:59:12.895Z,12.50
2017-10-12T07:01:41.277Z,12.50
2017-10-12T07:04:09.650Z,12.60
2017-10-12T07:06:38.134Z,12.70
2017-10-12T07:09:06.510Z,12.50
2017-10-12T07:11:34.886Z,12.60
2017-10-12T07:14:03.274Z,12.60
2017-10-12T07:16:31.642Z,12.50
2017-10-12T07:19:00.065Z,12.50
2017-10-12T07:21:28.255Z,12.50
2017-10-12T07:23:56.636Z,12.50
2017-10-12T07:26:25.021Z,12.50
2017-10-12T07:28:54.164Z,12.60
2017-10-12T07:31:22.559Z,12.60
2017-10-12T07:33:51.965Z,12.60
2017-10-12T07:36:20.343Z,12.60
2017-10-12T07:38:49.269Z,12.60
2017-10-12T07:41:18.409Z,12.80
2017-10-12T07:43:46.818Z,12.70
2017-10-12T07:46:15.188Z,12.70
2017-10-12T07:48:43.557Z,13.00
2017-10-12T07:51:11.941Z,12.80
2017-10-12T07:53:40.327Z,12.70
2017-10-12T07:56:09.498Z,12.90
2017-10-12T07:58:37.689Z,12.90
2017-10-12T08:01:06.067Z,13.00
2017-10-12T08:03:34.455Z,13.00
2017-10-12T08:06:02.829Z,13.00
2017-10-12T08:08:31.237Z,12.90
2017-10-12T08:11:01.390Z,12.80
2017-10-12T08:13:29.767Z,12.80
2017-10-12T08:15:58.154Z,12.70
2017-10-12T08:18:26.542Z,13.00
2017-10-12T08:20:54.958Z,13.40
2017-10-12T08:23:23.346Z,13.30
2017-10-12T08:25:52.296Z,13.60
2017-10-12T08:28:20.686Z,13.60
2017-10-12T08:30:49.069Z,14.20
2017-10-12T08:33:17.458Z,14.40
2017-10-12T08:35:45.841Z,14.50
2017-10-12T08:38:14.220Z,14.30
2017-10-12T08:40:42.602Z,14.10
2017-10-12T08:43:10.977Z,14.00
2017-10-12T08:45:39.365Z,14.30
2017-10-12T08:48:08.513Z,14.70
2017-10-12T08:50:36.892Z,14.60
2017-10-12T08:53:05.290Z,14.80
2017-10-12T08:55:33.723Z,14.30
2017-10-12T08:58:02.212Z,14.40
2017-10-12T09:00:30.601Z,14.20
2017-10-12T09:02:58.984Z,14.60
2017-10-12T09:05:28.126Z,14.70
2017-10-12T09:07:57.089Z,14.20
2017-10-12T09:10:26.065Z,14.50
2017-10-12T09:12:54.449Z,14.50
2017-10-12T09:15:22.844Z,14.40
2017-10-12T09:17:51.236Z,14.40
2017-10-12T09:20:20.045Z,14.10
2017-10-12T09:22:49.191Z,14.40
2017-10-12T09:25:17.586Z,14.30
2017-10-12T09:27:45.612Z,14.60
2017-10-12T09:30:13.641Z,14.30
2017-10-12T09:32:41.339Z,14.50
2017-10-12T09:35:09.361Z,15.10
2017-10-12T09:37:37.417Z,15.40
2017-10-12T09:40:05.444Z,15.20
2017-10-12T09:42:33.561Z,15.50
2017-10-12T09:45:01.970Z,15.20
2017-10-12T09:47:30.805Z,15.10
2017-10-12T09:49:58.851Z,15.10
2017-10-12T09:52:27.230Z,15.40
2017-10-12T09:54:55.265Z,15.40
2017-10-12T09:57:23.649Z,15.80
2017-10-12T09:59:52.024Z,16.00
2017-10-12T10:02:21.293Z,15.80
2017-10-12T10:04:49.336Z,15.70
2017-10-12T10:07:18.844Z,16.00
2017-10-12T10:09:47.253Z,16.10
2017-10-12T10:12:15.627Z,16.20
2017-10-12T10:14:44.015Z,15.60
2017-10-12T10:17:12.433Z,15.10
2017-10-12T10:19:41.569Z,15.00
2017-10-12T10:22:09.945Z,15.00
2017-10-12T10:24:38.358Z,14.80
2017-10-12T10:27:06.735Z,15.10
2017-10-12T10:29:35.101Z,15.10
2017-10-12T10:32:03.597Z,15.60
2017-10-12T10:34:31.971Z,15.40
2017-10-12T10:37:00.342Z,15.50
2017-10-12T10:39:28.749Z,15.60
2017-10-12T10:41:57.896Z,16.10
2017-10-12T10:44:26.274Z,16.10
2017-10-12T10:46:54.664Z,16.70
2017-10-12T10:49:23.048Z,16.80
2017-10-12T10:51:51.678Z,16.10
2017-10-12T10:54:20.094Z,16.40
2017-10-12T10:56:48.473Z,16.70
2017-10-12T10:59:16.857Z,16.30
2017-10-12T11:01:45.257Z,16.30
2017-10-12T11:04:13.652Z,16.00
2017-10-12T11:06:42.808Z,16.30
2017-10-12T11:09:11.246Z,16.30
2017-10-12T11:11:39.617Z,16.20
2017-10-12T11:14:08.766Z,16.00
2017-10-12T11:16:37.925Z,16.40
2017-10-12T11:19:06.294Z,16.30
2017-10-12T11:21:34.669Z,16.50
2017-10-12T11:24:03.076Z,16.10
2017-10-12T11:26:31.450Z,16.20
2017-10-12T11:28:59.825Z,15.90
2017-10-12T11:31:28.233Z,15.70
2017-10-12T11:33:56.613Z,15.40
2017-10-12T11:36:24.993Z,15.50
2017-10-12T11:38:53.399Z,15.50
2017-10-12T11:41:22.537Z,15.60
2017-10-12T11:43:50.908Z,15.50
2017-10-12T11:46:19.298Z,15.50
2017-10-12T11:48:47.681Z,15.50
2017-10-12T11:51:16.045Z,15.40
2017-10-12T11:53:44.460Z,15.50
2017-10-12T11:56:12.838Z,15.50
2017-10-12T11:58:41.036Z,15.20
2017-10-12T12:01:10.031Z,15.20
2017-10-12T12:03:39.181Z,15.20
2017-10-12T12:06:07.554Z,15.20
2017-10-12T12:08:35.974Z,15.20
2017-10-12T12:11:04.352Z,15.30
2017-10-12T12:13:32.732Z,15.30
2017-10-12T12:16:01.256Z,15.40
2017-10-12T12:18:29.621Z,15.20
2017-10-12T12:20:57.994Z,15.20
2017-10-12T12:23:26.420Z,15.30
2017-10-12T12:25:54.609Z,15.50
2017-10-12T12:28:23.002Z,15.90
2017-10-12T12:30:52.162Z,16.10
2017-10-12T12:33:20.541Z,16.00
2017-10-12T12:35:48.916Z,16.70
2017-10-12T12:38:17.324Z,16.90
2017-10-12T12:40:45.697Z,17.30
2017-10-12T12:43:14.071Z,16.70
2017-10-12T12:45:42.463Z,17.20
2017-10-12T12:48:11.107Z,16.50
2017-10-12T12:50:39.483Z,16.40
2017-10-12T12:53:07.973Z,16.40
2017-10-12T12:55:36.360Z,16.20
2017-10-12T12:58:05.488Z,17.50
2017-10-12T13:00:34.650Z,17.20
2017-10-12T13:03:03.022Z,17.20
2017-10-12T13:05:31.588Z,16.70
2017-10-12T13:07:59.999Z,16.50
2017-10-12T13:10:28.373Z,16.60
2017-10-12T13:12:57.526Z,16.80
2017-10-12T13:15:25.928Z,16.80
2017-10-12T13:17:54.119Z,16.40
2017-10-12T13:20:22.310Z,16.40
2017-10-12T13:22:50.507Z,16.60
2017-10-12T13:25:19.648Z,15.90
2017-10-12T13:27:48.017Z,15.90
2017-10-12T13:30:16.429Z,16.10
2017-10-12T13:32:44.800Z,16.00
2017-10-12T13:35:13.185Z,16.10
2017-10-12T13:37:41.577Z,16.50
2017-10-12T13:40:10.749Z,16.40
2017-10-12T13:42:39.126Z,16.40
2017-10-12T13:45:07.517Z,16.50
2017-10-12T13:47:36.671Z,16.40
2017-10-12T13:50:05.053Z,16.30
2017-10-12T13:52:33.452Z,16.40
2017-10-12T13:55:01.825Z,16.10
2017-10-12T13:57:30.197Z,16.20
2017-10-12T13:59:58.590Z,16.50
2017-10-12T14:02:26.624Z,16.50
2017-10-12T14:04:55.050Z,16.60
2017-10-12T14:07:23.467Z,16.50
2017-10-12T14:09:51.652Z,16.40
2017-10-12T14:12:19.840Z,16.10
2017-10-12T14:14:48.046Z,16.10
2017-10-12T14:17:16.236Z,16.10
2017-10-12T14:19:44.502Z,16.30
2017-10-12T14:22:12.942Z,16.40
2017-10-12T14:24:41.354Z,16.30
2017-10-12T14:27:09.737Z,16.20
2017-10-12T14:29:38.146Z,16.10
2017-10-12T14:32:07.290Z,16.00
2017-10-12T14:34:35.687Z,16.00
2017-10-12T14:37:04.178Z,15.90
2017-10-12T14:39:32.553Z,16.00
2017-10-12T14:42:00.726Z,16.00
2017-10-12T14:44:29.225Z,16.30
2017-10-12T14:46:58.374Z,16.10
2017-10-12T14:49:26.832Z,16.10
2017-10-12T14:51:55.257Z,16.10
2017-10-12T14:54:23.636Z,16.10
2017-10-12T14:57:00.517Z,16.00
2017-10-12T14:59:28.811Z,15.90
2017-10-12T15:01:58.006Z,15.80
2017-10-12T15:04:26.993Z,15.80
2017-10-12T15:06:55.408Z,15.80
2017-10-12T15:09:23.793Z,15.70
2017-10-12T15:11:52.197Z,15.70
2017-10-12T15:14:20.581Z,15.80
2017-10-12T15:16:48.962Z,15.70
2017-10-12T15:19:17.366Z,15.70
2017-10-12T15:21:46.539Z,15.80
2017-10-12T15:24:15.010Z,15.80
2017-10-12T15:26:43.218Z,15.80
2017-10-12T15:29:12.389Z,15.50
2017-10-12T15:31:40.843Z,15.50
2017-10-12T15:34:09.274Z,15.50
2017-10-12T15:36:38.430Z,15.50
2017-10-12T15:39:06.886Z,15.50
2017-10-12T15:41:35.375Z,15.60
2017-10-12T15:44:03.811Z,15.50
2017-10-12T15:46:32.853Z,15.50
2017-10-12T15:49:01.253Z,15.50
2017-10-12T15:51:29.453Z,15.40
2017-10-12T15:53:58.848Z,15.40
2017-10-12T15:56:27.517Z,15.40
2017-10-12T15:58:55.891Z,15.40
2017-10-12T16:01:24.281Z,15.30
2017-10-12T16:03:52.690Z,15.20
2017-10-12T16:06:20.878Z,15.20
2017-10-12T16:08:50.860Z,15.10
2017-10-12T16:11:19.057Z,15.10
2017-10-12T16:13:47.259Z,15.10
2017-10-12T16:16:15.643Z,15.10
2017-10-12T16:18:44.135Z,15.10
2017-10-12T16:21:12.522Z,14.90
2017-10-12T16:23:40.912Z,14.90
2017-10-12T16:26:09.587Z,14.90
2017-10-12T16:28:38.026Z,15.10
2017-10-12T16:31:06.404Z,15.10
2017-10-12T16:33:34.814Z,15.10
2017-10-12T16:36:03.216Z,15.00
2017-10-12T16:38:31.593Z,14.90
2017-10-12T16:40:59.830Z,14.80
2017-10-12T16:43:28.216Z,14.70
2017-10-12T16:45:56.596Z,14.60
2017-10-12T16:48:24.639Z,14.50
2017-10-12T16:50:53.053Z,14.40
2017-10-12T16:53:22.477Z,14.30
2017-10-12T16:55:50.870Z,14.30
2017-10-12T16:58:19.832Z,14.10
2017-10-12T17:00:48.230Z,14.10
2017-10-12T17:03:16.679Z,14.10
2017-10-12T17:05:45.628Z,13.90
2017-10-12T17:08:13.841Z,13.90
2017-10-12T17:10:42.055Z,13.80
2017-10-12T17:13:10.517Z,13.80
2017-10-12T17:15:39.725Z,13.70
2017-10-12T17:18:08.943Z,13.60
2017-10-12T17:20:37.317Z,13.60
2017-10-12T17:23:06.290Z,13.50
2017-10-12T17:25:34.713Z,13.50
2017-10-12T17:28:03.094Z,13.40
2017-10-12T17:30:31.293Z,13.40
2017-10-12T17:32:59.757Z,13.30
2017-10-12T17:35:29.280Z,13.20
2017-10-12T17:37:57.473Z,13.20
2017-10-12T17:40:25.965Z,13.10
2017-10-12T17:42:55.119Z,13.10
2017-10-12T17:45:23.509Z,13.00
2017-10-12T17:47:51.911Z,13.00
2017-10-12T17:50:20.303Z,13.00
2017-10-12T17:52:49.503Z,12.90
2017-10-12T17:55:18.879Z,12.80
2017-10-12T17:57:47.883Z,12.80
2017-10-12T18:00:16.260Z,12.80
2017-10-12T18:02:44.650Z,12.70
2017-10-12T18:05:13.825Z,12.60
2017-10-12T18:07:42.219Z,12.50
2017-10-12T18:10:11.410Z,12.40
2017-10-12T18:12:39.815Z,12.40
2017-10-12T18:15:08.609Z,12.30
2017-10-12T18:17:37.008Z,12.30
2017-10-12T18:20:05.444Z,12.30
2017-10-12T18:22:34.710Z,12.20
2017-10-12T18:25:03.336Z,12.20
2017-10-12T18:27:31.788Z,12.10
